Time;durP1;ratioP1;P1;durP2;ratioP2;P2;SDS_P1;SDS_P2;PMS_P1;PMS_P2;Temp;Humidity;BMP_temperature;BMP_pressure;BME280_temperature;BME280_humidity;BME280_pressure;Samples;Min_cycle;Max_cycle;Signal;HPM_P1;HPM_P2
2021/11/11 00:00:30;;;;;;;0.40;0.40;;;;;;;6.96;100.00;101673.41;5002572;28;20041;-80
2021/11/11 00:03:04;;;;;;;0.30;0.30;;;;;;;6.94;100.00;101670.13;5014335;28;20068;-81
2021/11/11 00:05:37;;;;;;;0.30;0.30;;;;;;;6.95;100.00;101666.38;5015340;28;20061;-80
2021/11/11 00:08:12;;;;;;;0.30;0.30;;;;;;;6.92;100.00;101658.72;5014537;28;20406;-80
2021/11/11 00:10:45;;;;;;;0.30;0.30;;;;;;;6.90;100.00;101664.34;5013193;28;20481;-80
2021/11/11 00:13:20;;;;;;;0.20;0.20;;;;;;;6.90;100.00;101656.22;5012162;28;20075;-80
2021/11/11 00:15:53;;;;;;;0.20;0.20;;;;;;;6.92;100.00;101656.00;5013218;28;20046;-80
2021/11/11 00:18:26;;;;;;;0.30;0.30;;;;;;;6.86;100.00;101651.50;5012039;28;20061;-81
2021/11/11 00:20:59;;;;;;;0.40;0.40;;;;;;;6.91;100.00;101652.47;5008930;28;20054;-82
2021/11/11 00:23:34;;;;;;;0.30;0.30;;;;;;;6.89;100.00;101646.47;5011061;28;20050;-81
2021/11/11 00:26:07;;;;;;;0.30;0.30;;;;;;;6.90;100.00;101653.50;5029125;28;20280;-79
2021/11/11 00:28:41;;;;;;;0.30;0.30;;;;;;;6.86;100.00;101646.09;5013766;28;20050;-81
2021/11/11 00:31:14;;;;;;;0.30;0.30;;;;;;;6.85;100.00;101631.75;5006441;28;20054;-80
2021/11/11 00:33:47;;;;;;;0.30;0.30;;;;;;;6.83;100.00;101638.44;5011591;28;20050;-80
2021/11/11 00:36:22;;;;;;;0.30;0.30;;;;;;;6.80;100.00;101637.84;5012149;28;20505;-80
2021/11/11 00:38:56;;;;;;;0.40;0.40;;;;;;;6.83;100.00;101635.75;5013300;28;20045;-81
2021/11/11 00:41:30;;;;;;;0.28;0.28;;;;;;;6.80;100.00;101628.91;5011290;28;20052;-81
2021/11/11 00:44:04;;;;;;;0.30;0.30;;;;;;;6.82;100.00;101624.06;5019778;28;20056;-81
2021/11/11 00:46:39;;;;;;;0.40;0.40;;;;;;;6.82;100.00;101626.78;5009937;28;20058;-80
2021/11/11 00:49:07;;;;;;;0.20;0.20;;;;;;;6.84;100.00;101611.16;5014007;28;20057;-80
2021/11/11 00:51:41;;;;;;;0.28;0.28;;;;;;;6.82;100.00;101615.97;5016889;28;20517;-83
2021/11/11 00:54:16;;;;;;;0.30;0.30;;;;;;;6.80;100.00;101612.69;5012724;28;20422;-80
2021/11/11 00:56:51;;;;;;;0.33;0.33;;;;;;;6.83;100.00;101614.91;5006934;28;20053;-81
2021/11/11 00:59:24;;;;;;;0.30;0.30;;;;;;;6.80;100.00;101604.56;5012896;28;20046;-81
2021/11/11 01:01:57;;;;;;;0.30;0.30;;;;;;;6.87;100.00;101618.81;5012504;28;20042;-81
2021/11/11 01:04:30;;;;;;;0.20;0.20;;;;;;;6.91;100.00;101630.81;5016423;28;20056;-81
2021/11/11 01:07:05;;;;;;;0.20;0.20;;;;;;;6.98;100.00;101636.94;5010963;28;20053;-81
2021/11/11 01:09:39;;;;;;;0.20;0.20;;;;;;;6.90;100.00;101637.28;5011116;28;20068;-80
2021/11/11 01:12:12;;;;;;;0.30;0.30;;;;;;;6.88;100.00;101644.81;5002169;28;20042;-80
2021/11/11 01:14:46;;;;;;;0.30;0.30;;;;;;;6.86;100.00;101630.69;5009316;28;20469;-81
2021/11/11 01:17:14;;;;;;;0.30;0.30;;;;;;;6.84;100.00;101630.09;5010848;28;20394;-81
2021/11/11 01:19:42;;;;;;;0.30;0.30;;;;;;;6.84;100.00;101642.81;5009808;28;20478;-81
2021/11/11 01:22:10;;;;;;;0.30;0.30;;;;;;;6.86;100.00;101649.63;5012253;28;20046;-81
2021/11/11 01:24:40;;;;;;;0.30;0.30;;;;;;;6.91;100.00;101649.75;5009614;28;20053;-81
2021/11/11 01:27:13;;;;;;;0.32;0.32;;;;;;;6.89;100.00;101653.75;5012387;28;20113;-80
2021/11/11 01:29:47;;;;;;;0.30;0.30;;;;;;;6.91;100.00;101662.47;5012106;28;20049;-81
2021/11/11 01:32:20;;;;;;;0.20;0.20;;;;;;;7.03;100.00;101651.66;5004923;28;20572;-80
2021/11/11 01:34:49;;;;;;;0.30;0.30;;;;;;;6.98;100.00;101660.50;5021536;28;20314;-80
2021/11/11 01:37:22;;;;;;;0.30;0.30;;;;;;;6.92;100.00;101651.41;5019998;28;20442;-81
2021/11/11 01:39:58;;;;;;;0.30;0.30;;;;;;;6.88;100.00;101658.34;5013514;28;20042;-82
2021/11/11 01:42:41;;;;;;;0.30;0.30;;;;;;;6.86;100.00;101662.34;5009964;28;20061;-81
2021/11/11 01:45:16;;;;;;;0.30;0.30;;;;;;;6.85;100.00;101658.81;5008948;28;20082;-80
2021/11/11 01:47:49;;;;;;;0.38;0.38;;;;;;;6.87;100.00;101658.59;5006960;28;20050;-81
2021/11/11 01:50:20;;;;;;;0.35;0.35;;;;;;;6.79;100.00;101660.56;5005967;28;20053;-81
2021/11/11 01:52:53;;;;;;;0.40;0.40;;;;;;;6.83;100.00;101647.38;5011713;28;20045;-81
2021/11/11 01:55:28;;;;;;;0.40;0.40;;;;;;;6.91;100.00;101640.81;5012875;28;20045;-81
2021/11/11 01:58:03;;;;;;;0.20;0.20;;;;;;;6.92;100.00;101639.78;5008362;28;20053;-80
2021/11/11 02:00:38;;;;;;;0.30;0.30;;;;;;;6.89;100.00;101641.06;5012364;28;20046;-80
2021/11/11 02:03:09;;;;;;;0.20;0.20;;;;;;;6.85;100.00;101637.16;5004307;28;20367;-80
2021/11/11 02:06:01;;;;;;;0.30;0.30;;;;;;;6.85;100.00;101644.44;5015445;28;20061;-81
2021/11/11 02:08:57;;;;;;;0.30;0.30;;;;;;;6.81;100.00;101644.09;5010813;28;20061;-80
2021/11/11 02:11:44;;;;;;;0.30;0.30;;;;;;;6.83;100.00;101646.56;5008847;28;20054;-80
2021/11/11 02:14:12;;;;;;;0.55;0.30;;;;;;;6.78;100.00;101626.44;5022783;28;20534;-80
2021/11/11 02:16:46;;;;;;;0.40;0.35;;;;;;;6.79;100.00;101636.22;5003762;28;20056;-81
2021/11/11 02:19:31;;;;;;;0.30;0.30;;;;;;;6.83;100.00;101643.88;5014982;28;20046;-81
2021/11/11 02:22:03;;;;;;;0.20;0.20;;;;;;;6.87;100.00;101636.94;5010149;28;20042;-80
2021/11/11 02:24:37;;;;;;;0.30;0.30;;;;;;;6.81;100.00;101646.81;5004539;28;20057;-80
2021/11/11 02:27:13;;;;;;;0.30;0.30;;;;;;;6.78;100.00;101641.84;5008419;28;20050;-80
2021/11/11 02:29:42;;;;;;;0.32;0.32;;;;;;;6.79;100.00;101652.44;5009393;28;20061;-82
2021/11/11 02:32:10;;;;;;;0.38;0.38;;;;;;;6.81;100.00;101644.91;5010084;28;20049;-80
2021/11/11 02:34:43;;;;;;;0.40;0.40;;;;;;;6.83;100.00;101641.16;5009241;28;20070;-80
2021/11/11 02:37:18;;;;;;;0.30;0.30;;;;;;;6.77;100.00;101632.91;5009123;28;20049;-82
2021/11/11 02:40:09;;;;;;;0.30;0.30;;;;;;;6.78;100.00;101636.41;5008545;28;20058;-80
2021/11/11 02:42:46;;;;;;;0.35;0.35;;;;;;;6.79;100.00;101629.97;5008655;28;20064;-80
2021/11/11 02:45:26;;;;;;;0.38;0.38;;;;;;;6.85;100.00;101630.91;5009920;28;20724;-80
2021/11/11 02:47:59;;;;;;;0.30;0.30;;;;;;;6.83;100.00;101631.16;5012271;28;20054;-80
2021/11/11 02:50:38;;;;;;;0.30;0.30;;;;;;;6.81;100.00;101625.97;5006119;28;20050;-81
2021/11/11 02:53:13;;;;;;;0.30;0.30;;;;;;;6.76;100.00;101615.00;5007939;28;20072;-80
2021/11/11 02:55:48;;;;;;;0.30;0.30;;;;;;;6.79;100.00;101617.28;5006109;28;20038;-80
2021/11/11 02:58:17;;;;;;;0.30;0.30;;;;;;;6.79;100.00;101622.69;5009861;28;20060;-81
2021/11/11 03:00:59;;;;;;;0.30;0.30;;;;;;;6.80;100.00;101626.22;5003141;28;20549;-80
2021/11/11 03:03:33;;;;;;;0.30;0.30;;;;;;;6.80;100.00;101621.59;5007340;28;20060;-80
2021/11/11 03:06:10;;;;;;;0.40;0.40;;;;;;;6.79;100.00;101616.44;5003615;28;20053;-81
2021/11/11 03:08:44;;;;;;;0.38;0.38;;;;;;;6.81;100.00;101611.63;5009665;28;20076;-80
2021/11/11 03:11:12;;;;;;;0.38;0.38;;;;;;;6.78;100.00;101615.63;5007855;28;20355;-81
2021/11/11 03:14:06;;;;;;;0.30;0.30;;;;;;;6.79;100.00;101611.03;5006154;28;20057;-80
2021/11/11 03:16:40;;;;;;;0.40;0.40;;;;;;;6.84;100.00;101613.88;5004519;28;20058;-80
2021/11/11 03:19:13;;;;;;;0.30;0.30;;;;;;;6.83;100.00;101611.41;5024370;28;20435;-81
2021/11/11 03:21:47;;;;;;;0.38;0.38;;;;;;;6.81;100.00;101601.63;5004991;28;20526;-80
2021/11/11 03:24:21;;;;;;;0.38;0.32;;;;;;;6.81;100.00;101608.94;5008249;28;20413;-79
2021/11/11 03:26:55;;;;;;;0.38;0.38;;;;;;;6.80;100.00;101604.56;5019922;28;20414;-80
2021/11/11 03:29:28;;;;;;;0.40;0.40;;;;;;;6.81;100.00;101598.09;5006644;28;20137;-81
2021/11/11 03:31:57;;;;;;;0.30;0.30;;;;;;;6.77;100.00;101607.75;5003405;28;20490;-80
2021/11/11 03:34:30;;;;;;;0.40;0.40;;;;;;;6.78;100.00;101609.38;5010524;28;20042;-81
2021/11/11 03:37:01;;;;;;;0.43;0.43;;;;;;;6.75;100.00;101609.84;5009993;28;20083;-79
2021/11/11 03:39:36;;;;;;;0.30;0.30;;;;;;;6.79;100.00;101614.56;5010071;28;20060;-81
2021/11/11 03:42:12;;;;;;;0.40;0.40;;;;;;;6.83;100.00;101611.41;5009072;28;20426;-78
2021/11/11 03:44:46;;;;;;;0.38;0.38;;;;;;;6.83;100.00;101611.41;5010048;28;20053;-79
2021/11/11 03:47:22;;;;;;;0.50;0.50;;;;;;;6.81;100.00;101600.81;5011013;28;20251;-78
2021/11/11 03:49:52;;;;;;;0.40;0.40;;;;;;;6.75;100.00;101596.31;5013307;28;20305;-78
2021/11/11 03:52:25;;;;;;;0.40;0.40;;;;;;;6.77;100.00;101605.84;5009332;28;20046;-80
2021/11/11 03:55:01;;;;;;;0.38;0.38;;;;;;;6.81;100.00;101604.31;5011353;28;20034;-81
2021/11/11 03:57:34;;;;;;;0.32;0.32;;;;;;;6.87;100.00;101609.88;5009629;28;20069;-80
2021/11/11 04:00:11;;;;;;;0.40;0.40;;;;;;;6.81;100.00;101601.63;5011908;28;20434;-81
2021/11/11 04:02:49;;;;;;;0.30;0.30;;;;;;;6.78;100.00;101604.78;5023894;28;20363;-80
2021/11/11 04:05:23;;;;;;;0.30;0.30;;;;;;;6.80;100.00;101608.06;5008381;28;20081;-80
2021/11/11 04:07:58;;;;;;;0.32;0.32;;;;;;;6.84;100.00;101604.94;5026755;28;20046;-80
2021/11/11 04:10:33;;;;;;;0.30;0.30;;;;;;;6.87;100.00;101604.47;5012016;28;20061;-80
2021/11/11 04:13:14;;;;;;;0.40;0.40;;;;;;;6.87;100.00;101609.88;5009874;28;20048;-80
2021/11/11 04:15:47;;;;;;;0.30;0.30;;;;;;;6.87;100.00;101607.16;5011579;28;20065;-82
2021/11/11 04:18:21;;;;;;;0.40;0.40;;;;;;;6.88;100.00;101614.25;5026700;28;20060;-80
2021/11/11 04:20:49;;;;;;;0.35;0.35;;;;;;;6.88;100.00;101603.41;5012152;28;20049;-80
2021/11/11 04:23:24;;;;;;;0.40;0.40;;;;;;;6.86;100.00;101609.03;5008778;28;20621;-81
2021/11/11 04:26:00;;;;;;;0.30;0.30;;;;;;;6.87;100.00;101604.47;5008281;28;20054;-80
2021/11/11 04:28:38;;;;;;;0.40;0.40;;;;;;;6.88;100.00;101608.81;5010067;28;20053;-81
2021/11/11 04:31:19;;;;;;;0.40;0.40;;;;;;;6.86;100.00;101594.69;5005769;28;20054;-80
2021/11/11 04:33:50;;;;;;;0.30;0.30;;;;;;;6.94;100.00;101599.75;5013215;28;20050;-80
2021/11/11 04:39:38;;;;;;;0.30;0.30;;;;;;;6.92;100.00;101594.59;5010897;28;20072;-79
2021/11/11 04:42:31;;;;;;;0.35;0.35;;;;;;;6.93;100.00;101600.81;5011288;28;20046;-80
2021/11/11 04:48:15;;;;;;;0.30;0.30;;;;;;;6.95;100.00;101590.59;5004422;28;20046;-79
2021/11/11 04:59:44;;;;;;;0.40;0.40;;;;;;;6.91;100.00;101592.94;5025049;28;20054;-81
2021/11/11 05:02:36;;;;;;;0.30;0.30;;;;;;;6.96;100.00;101595.78;5008235;28;20466;-79
2021/11/11 05:05:05;;;;;;;0.40;0.40;;;;;;;6.97;100.00;101591.19;5009404;28;20046;-80
2021/11/11 05:07:39;;;;;;;0.45;0.45;;;;;;;6.93;100.00;101598.94;5020840;28;20521;-79
2021/11/11 05:10:14;;;;;;;0.30;0.30;;;;;;;6.94;100.00;101594.34;5033968;28;20054;-80
2021/11/11 05:12:43;;;;;;;0.38;0.38;;;;;;;6.95;100.00;101596.81;5011417;28;20054;-80
2021/11/11 05:15:19;;;;;;;0.35;0.35;;;;;;;6.98;100.00;101598.25;5009351;28;20061;-79
2021/11/11 05:17:48;;;;;;;0.35;0.35;;;;;;;6.95;100.00;101598.72;5021261;28;20056;-80
2021/11/11 05:20:25;;;;;;;0.38;0.38;;;;;;;6.97;100.00;101602.84;5010292;28;20046;-81
2021/11/11 05:22:53;;;;;;;0.40;0.40;;;;;;;6.94;100.00;101597.06;5012469;28;20046;-81
2021/11/11 05:25:27;;;;;;;0.40;0.40;;;;;;;6.93;100.00;101593.53;5010603;28;20050;-80
2021/11/11 05:28:01;;;;;;;0.40;0.40;;;;;;;6.95;100.00;101596.81;5010494;28;20046;-80
2021/11/11 05:30:38;;;;;;;0.43;0.43;;;;;;;6.92;100.00;101594.59;5012059;28;20065;-79
2021/11/11 05:33:08;;;;;;;0.30;0.30;;;;;;;6.94;100.00;101603.28;5009368;28;20046;-81
2021/11/11 05:35:36;;;;;;;0.63;0.50;;;;;;;7.00;100.00;101598.00;5010502;28;20050;-79
2021/11/11 05:38:09;;;;;;;0.40;0.40;;;;;;;7.03;100.00;101603.78;5008239;28;20054;-79
2021/11/11 05:40:43;;;;;;;0.30;0.30;;;;;;;7.00;100.00;101606.13;5006009;28;20061;-80
2021/11/11 05:43:11;;;;;;;0.30;0.30;;;;;;;7.02;100.00;101607.53;5009919;28;20038;-80
2021/11/11 05:45:42;;;;;;;0.30;0.30;;;;;;;6.97;100.00;101592.00;5008005;28;20130;-79
2021/11/11 05:48:15;;;;;;;0.40;0.40;;;;;;;7.02;100.00;101598.63;5007589;28;20044;-81
2021/11/11 05:50:48;;;;;;;0.30;0.30;;;;;;;6.98;100.00;101590.94;5011670;28;20493;-79
2021/11/11 05:53:18;;;;;;;0.50;0.50;;;;;;;7.00;100.00;101590.69;5009878;28;20053;-80
2021/11/11 05:55:54;;;;;;;0.40;0.40;;;;;;;6.97;100.00;101597.44;5007415;28;20053;-80
2021/11/11 05:58:29;;;;;;;0.40;0.40;;;;;;;6.95;100.00;101594.13;5007698;28;20053;-79
2021/11/11 06:00:58;;;;;;;0.30;0.30;;;;;;;7.02;100.00;101582.38;5008374;28;20058;-79
2021/11/11 06:03:40;;;;;;;0.40;0.40;;;;;;;7.08;100.00;101586.84;5008446;28;20045;-80
2021/11/11 06:06:13;;;;;;;0.40;0.40;;;;;;;7.02;100.00;101594.00;5017857;28;20056;-81
2021/11/11 06:08:47;;;;;;;0.40;0.40;;;;;;;6.98;100.00;101599.06;5008569;28;20057;-79
2021/11/11 06:11:21;;;;;;;0.20;0.20;;;;;;;6.98;100.00;101600.94;5010355;28;20080;-80
2021/11/11 06:13:54;;;;;;;0.30;0.30;;;;;;;6.99;100.00;101594.50;5011880;28;20513;-80
2021/11/11 06:16:29;;;;;;;0.30;0.30;;;;;;;6.96;100.00;101601.19;5014415;28;20049;-81
2021/11/11 06:19:03;;;;;;;0.30;0.30;;;;;;;6.95;100.00;101596.81;5017710;28;20046;-79
2021/11/11 06:21:31;;;;;;;0.30;0.30;;;;;;;7.00;100.00;101598.81;5011981;28;20073;-80
2021/11/11 06:24:05;;;;;;;0.40;0.40;;;;;;;6.96;100.00;101603.88;5008581;28;20041;-80
2021/11/11 06:26:34;;;;;;;0.30;0.30;;;;;;;7.02;100.00;101599.44;5007461;28;20062;-80
2021/11/11 06:29:08;;;;;;;0.40;0.40;;;;;;;6.94;100.00;101595.16;5036355;28;20407;-79
2021/11/11 06:31:43;;;;;;;0.30;0.30;;;;;;;6.96;100.00;101601.19;5009107;28;20413;-79
2021/11/11 06:34:23;;;;;;;0.30;0.30;;;;;;;7.05;100.00;101601.66;5009421;28;20049;-80
2021/11/11 06:36:56;;;;;;;0.30;0.30;;;;;;;7.06;100.00;101607.91;5008765;28;20050;-80
2021/11/11 06:39:30;;;;;;;0.30;0.30;;;;;;;7.08;100.00;101606.59;5010076;28;20410;-79
2021/11/11 06:42:04;;;;;;;0.25;0.25;;;;;;;7.06;100.00;101616.03;5010424;28;20139;-79
2021/11/11 06:44:32;;;;;;;0.30;0.30;;;;;;;7.07;100.00;101623.91;5009158;28;20041;-80
2021/11/11 06:47:06;;;;;;;0.30;0.30;;;;;;;7.04;100.00;101613.53;5025339;28;20072;-80
2021/11/11 06:49:39;;;;;;;0.30;0.30;;;;;;;7.07;100.00;101615.81;5009982;28;20049;-80
2021/11/11 06:52:13;;;;;;;0.20;0.20;;;;;;;7.08;100.00;101620.13;5008267;28;20052;-81
2021/11/11 06:54:46;;;;;;;0.30;0.30;;;;;;;7.11;100.00;101626.97;5007648;28;20037;-80
2021/11/11 06:57:19;;;;;;;0.40;0.40;;;;;;;7.12;100.00;101625.91;5012669;28;20508;-80
2021/11/11 06:59:59;;;;;;;0.30;0.30;;;;;;;7.08;100.00;101620.13;5007344;28;20506;-80
2021/11/11 07:02:33;;;;;;;0.30;0.30;;;;;;;7.12;100.00;101636.75;5006549;28;20038;-79
2021/11/11 07:05:09;;;;;;;0.30;0.30;;;;;;;7.12;100.00;101624.03;5007371;28;20057;-80
2021/11/11 07:07:42;;;;;;;0.30;0.30;;;;;;;7.19;100.00;101628.53;5022836;28;20494;-77
2021/11/11 07:10:16;;;;;;;0.30;0.30;;;;;;;7.21;100.00;101626.38;5009532;28;20394;-82
2021/11/11 07:12:49;;;;;;;0.30;0.30;;;;;;;7.17;100.00;101622.50;5008931;28;20042;-77
2021/11/11 07:15:19;;;;;;;0.30;0.30;;;;;;;7.26;100.00;101629.22;5009344;28;20050;-79
2021/11/11 07:17:54;;;;;;;0.30;0.30;;;;;;;7.26;100.00;101627.31;5003693;28;20088;-80
2021/11/11 07:20:27;;;;;;;0.30;0.30;;;;;;;7.25;100.00;101631.13;5006221;28;20501;-79
2021/11/11 07:23:04;;;;;;;0.30;0.30;;;;;;;7.27;100.00;101633.59;5008507;28;20071;-76
2021/11/11 07:25:37;;;;;;;0.30;0.30;;;;;;;7.29;100.00;101634.16;5006453;28;20049;-80
2021/11/11 07:28:07;;;;;;;0.30;0.30;;;;;;;7.29;100.00;101635.00;5009878;28;20049;-82
2021/11/11 07:30:41;;;;;;;0.30;0.30;;;;;;;7.31;100.00;101627.47;5004795;28;20046;-79
2021/11/11 07:33:16;;;;;;;0.30;0.30;;;;;;;7.29;100.00;101631.47;5004075;28;20411;-83
2021/11/11 07:35:45;;;;;;;0.30;0.30;;;;;;;7.39;100.00;101620.03;5007128;28;20050;-78
2021/11/11 07:38:15;;;;;;;0.20;0.20;;;;;;;7.37;100.00;101633.00;4988376;28;20077;-76
2021/11/11 07:40:49;;;;;;;0.30;0.30;;;;;;;7.39;100.00;101639.00;4977774;28;20418;-78
2021/11/11 07:43:22;;;;;;;0.30;0.30;;;;;;;7.51;100.00;101641.72;4981636;28;20046;-78
2021/11/11 07:45:56;;;;;;;0.30;0.30;;;;;;;7.42;100.00;101633.13;4977550;28;20061;-80
2021/11/11 07:48:30;;;;;;;0.22;0.22;;;;;;;7.43;100.00;101630.19;4979961;28;20062;-78
2021/11/11 07:51:00;;;;;;;0.20;0.20;;;;;;;7.39;100.00;101625.44;4975270;28;20058;-79
2021/11/11 07:53:33;;;;;;;0.30;0.30;;;;;;;7.43;100.00;101626.63;4976112;28;20050;-79
2021/11/11 07:56:06;;;;;;;0.30;0.30;;;;;;;7.46;100.00;101629.72;4975274;28;20057;-77
2021/11/11 07:58:40;;;;;;;0.30;0.30;;;;;;;7.51;100.00;101630.88;4976712;28;20049;-79
2021/11/11 08:01:08;;;;;;;0.30;0.30;;;;;;;7.55;100.00;101638.28;4978412;28;20054;-81
2021/11/11 08:03:43;;;;;;;0.30;0.30;;;;;;;7.60;100.00;101638.41;4981161;28;20045;-80
2021/11/11 08:06:13;;;;;;;0.30;0.30;;;;;;;7.60;100.00;101637.59;4975006;28;20062;-78
2021/11/11 08:08:46;;;;;;;0.35;0.35;;;;;;;7.56;100.00;101637.25;5012348;28;20092;-79
2021/11/11 08:11:20;;;;;;;0.38;0.38;;;;;;;7.58;100.00;101645.13;4974032;28;20058;-79
2021/11/11 08:13:53;;;;;;;0.30;0.30;;;;;;;7.65;100.00;101643.13;4987755;28;20050;-78
2021/11/11 08:16:26;;;;;;;0.30;0.30;;;;;;;7.68;100.00;101639.13;4982238;28;20030;-79
2021/11/11 08:19:01;;;;;;;0.30;0.30;;;;;;;7.65;100.00;101633.13;4990636;28;20050;-80
2021/11/11 08:21:29;;;;;;;0.30;0.30;;;;;;;7.81;100.00;101636.97;4983909;28;20057;-80
2021/11/11 08:24:02;;;;;;;0.30;0.30;;;;;;;7.72;100.00;101629.44;4982533;28;20708;-78
2021/11/11 08:26:30;;;;;;;0.30;0.30;;;;;;;7.72;100.00;101637.59;4982195;28;20054;-79
2021/11/11 08:28:59;;;;;;;0.30;0.30;;;;;;;7.70;100.00;101628.88;4983407;28;20050;-78
2021/11/11 08:31:32;;;;;;;0.30;0.30;;;;;;;7.71;100.00;101630.53;4988244;28;20050;-78
2021/11/11 08:34:07;;;;;;;0.30;0.30;;;;;;;7.74;100.00;101627.34;4976851;28;20050;-79
2021/11/11 08:36:40;;;;;;;0.30;0.30;;;;;;;7.68;100.00;101639.13;4979197;28;20061;-79
2021/11/11 08:39:13;;;;;;;0.30;0.30;;;;;;;7.74;100.00;101635.47;4980798;28;20058;-78
2021/11/11 08:41:42;;;;;;;0.30;0.30;;;;;;;7.73;100.00;101628.41;4989223;28;20943;-81
2021/11/11 08:44:10;;;;;;;0.30;0.30;;;;;;;7.75;100.00;101627.09;4984440;28;20045;-77
2021/11/11 08:46:43;;;;;;;0.28;0.28;;;;;;;7.81;100.00;101625.31;5030177;28;20048;-80
2021/11/11 08:49:19;;;;;;;0.30;0.30;;;;;;;7.87;100.00;101618.13;4983726;28;20053;-78
2021/11/11 08:51:53;;;;;;;0.32;0.32;;;;;;;7.88;100.00;101625.19;4995829;28;20065;-80
2021/11/11 08:54:27;;;;;;;0.30;0.30;;;;;;;7.84;100.00;101630.25;4989167;28;20481;-78
2021/11/11 08:57:00;;;;;;;0.30;0.30;;;;;;;7.81;100.00;101630.75;4980008;28;20068;-78
2021/11/11 08:59:28;;;;;;;0.30;0.30;;;;;;;7.87;100.00;101628.97;4976915;28;20391;-80
2021/11/11 09:02:02;;;;;;;0.30;0.30;;;;;;;7.93;100.00;101631.56;4971491;28;20448;-78
2021/11/11 09:04:36;;;;;;;0.30;0.30;;;;;;;7.89;100.00;101626.84;4974906;28;20058;-80
2021/11/11 09:07:09;;;;;;;0.40;0.40;;;;;;;7.94;100.00;101627.78;4979911;28;20054;-79
2021/11/11 09:09:43;;;;;;;0.30;0.30;;;;;;;8.07;100.00;101631.28;4981615;28;20705;-79
2021/11/11 09:12:16;;;;;;;0.28;0.28;;;;;;;8.08;100.00;101628.34;4984917;28;20050;-77
2021/11/11 09:14:50;;;;;;;0.30;0.30;;;;;;;8.12;100.00;101632.22;4991709;28;20060;-79
2021/11/11 09:17:23;;;;;;;0.30;0.30;;;;;;;8.11;100.00;101636.00;4986171;28;20062;-80
2021/11/11 09:19:58;;;;;;;0.30;0.30;;;;;;;8.13;100.00;101633.03;4983403;28;20061;-79
2021/11/11 09:22:34;;;;;;;0.30;0.30;;;;;;;8.18;100.00;101635.84;4978579;28;20061;-80
2021/11/11 09:25:09;;;;;;;0.22;0.22;;;;;;;8.17;100.00;101642.34;4981972;28;20387;-80
2021/11/11 09:27:45;;;;;;;0.30;0.30;;;;;;;8.28;100.00;101635.25;4985648;28;20545;-79
2021/11/11 09:30:23;;;;;;;0.30;0.30;;;;;;;8.30;100.00;101627.66;4988770;28;20061;-80
2021/11/11 09:32:57;;;;;;;0.30;0.30;;;;;;;8.32;100.00;101629.06;4982284;28;20319;-79
2021/11/11 09:35:32;;;;;;;0.30;0.30;;;;;;;8.33;100.00;101636.16;4979179;28;20506;-79
2021/11/11 09:38:02;;;;;;;0.30;0.30;;;;;;;8.39;100.00;101630.84;4983062;28;20049;-79
2021/11/11 09:40:36;;;;;;;0.28;0.28;;;;;;;8.38;100.00;101629.19;4986156;28;20057;-79
2021/11/11 09:43:09;;;;;;;0.30;0.30;;;;;;;8.36;100.00;101623.19;4980960;28;20145;-78
2021/11/11 09:45:46;;;;;;;0.30;0.30;;;;;;;8.39;100.00;101620.00;4979333;28;20046;-80
2021/11/11 09:48:19;;;;;;;0.30;0.30;;;;;;;8.37;100.00;101617.53;4989446;28;20050;-78
2021/11/11 09:50:54;;;;;;;0.30;0.30;;;;;;;8.41;100.00;101620.56;4978986;28;20046;-80
2021/11/11 09:53:24;;;;;;;0.30;0.30;;;;;;;8.37;100.00;101613.97;4981374;28;20057;-78
2021/11/11 09:58:45;;;;;;;0.30;0.30;;;;;;;8.45;100.00;101624.47;4982291;28;20754;-79
2021/11/11 10:01:22;;;;;;;0.30;0.30;;;;;;;8.53;100.00;101609.69;4980655;28;20061;-78
2021/11/11 10:03:55;;;;;;;0.30;0.30;;;;;;;8.52;100.00;101608.88;4982928;28;20945;-78
2021/11/11 10:06:31;;;;;;;0.30;0.30;;;;;;;8.59;100.00;101614.13;4977163;28;20041;-79
2021/11/11 10:09:12;;;;;;;0.30;0.30;;;;;;;8.54;100.00;101620.31;4998529;28;20069;-79
2021/11/11 10:11:50;;;;;;;0.30;0.30;;;;;;;8.52;100.00;101617.03;5016221;28;20415;-79
2021/11/11 10:14:25;;;;;;;0.20;0.20;;;;;;;8.59;100.00;101611.44;4998795;28;20053;-78
2021/11/11 10:16:56;;;;;;;0.28;0.28;;;;;;;8.54;100.00;101623.03;5003504;28;20049;-78
2021/11/11 10:19:32;;;;;;;0.30;0.30;;;;;;;8.56;100.00;101615.47;4999878;28;20061;-79
2021/11/11 10:22:11;;;;;;;0.30;0.30;;;;;;;8.61;100.00;101618.25;5003557;28;20445;-78
2021/11/11 10:24:47;;;;;;;0.30;0.30;;;;;;;8.58;100.00;101621.47;5005401;28;20042;-78
2021/11/11 10:27:25;;;;;;;0.28;0.28;;;;;;;8.52;100.00;101627.88;4997938;28;20050;-79
2021/11/11 10:30:03;;;;;;;0.30;0.30;;;;;;;8.53;100.00;101615.13;5002384;28;20089;-79
2021/11/11 10:32:38;;;;;;;;;;;;;;;8.62;100.00;101633.47;5005088;28;20045;-78
2021/11/11 10:35:10;;;;;;;0.30;0.30;;;;;;;8.62;100.00;101630.78;5001345;28;19925;-78
2021/11/11 10:37:49;;;;;;;0.30;0.30;;;;;;;8.74;100.00;101630.72;5001661;28;20147;-79
2021/11/11 10:40:25;;;;;;;0.30;0.30;;;;;;;8.83;100.00;101623.81;4998915;28;20054;-77
2021/11/11 10:42:59;;;;;;;0.30;0.30;;;;;;;8.66;100.00;101625.69;4999138;28;20631;-78
2021/11/11 10:45:35;;;;;;;0.20;0.20;;;;;;;8.77;100.00;101623.97;5000243;28;20057;-77
2021/11/11 10:48:15;;;;;;;0.30;0.30;;;;;;;8.76;100.00;101617.72;4999794;28;20038;-78
2021/11/11 10:50:46;;;;;;;0.30;0.30;;;;;;;8.71;100.00;101614.91;5001829;28;20576;-79
2021/11/11 10:53:24;;;;;;;0.30;0.30;;;;;;;8.83;100.00;101602.09;4999196;28;20064;-80
2021/11/11 10:56:00;;;;;;;0.30;0.30;;;;;;;8.71;100.00;101598.63;5001650;28;20050;-78
2021/11/11 10:58:38;;;;;;;0.20;0.20;;;;;;;8.76;100.00;101598.72;5004850;28;20049;-79
2021/11/11 11:01:14;;;;;;;0.20;0.20;;;;;;;8.87;100.00;101602.44;5001311;28;20057;-79
2021/11/11 11:03:49;;;;;;;0.30;0.30;;;;;;;8.85;100.00;101601.84;5000472;28;20053;-79
2021/11/11 11:06:26;;;;;;;0.30;0.30;;;;;;;8.76;100.00;101596.00;4998580;28;20480;-79
2021/11/11 11:08:59;;;;;;;0.30;0.30;;;;;;;8.81;100.00;101598.81;5000301;28;20050;-79
2021/11/11 11:11:35;;;;;;;0.20;0.20;;;;;;;8.90;100.00;101593.78;5002681;28;20809;-78
2021/11/11 11:14:13;;;;;;;0.25;0.25;;;;;;;8.72;100.00;101589.41;5000731;28;20057;-78
2021/11/11 11:16:47;;;;;;;0.30;0.30;;;;;;;8.83;100.00;101593.13;4999945;28;20421;-78
2021/11/11 11:19:22;;;;;;;0.30;0.30;;;;;;;8.87;100.00;101588.06;5002014;28;20056;-80
2021/11/11 11:21:56;;;;;;;0.30;0.30;;;;;;;8.83;100.00;101585.00;4999888;28;20616;-80
2021/11/11 11:24:33;;;;;;;0.30;0.30;;;;;;;8.95;100.00;101582.19;5001449;28;20057;-80
2021/11/11 11:27:08;;;;;;;0.30;0.30;;;;;;;8.88;100.00;101593.22;4994820;28;20047;-80
2021/11/11 11:29:42;;;;;;;0.30;0.30;;;;;;;8.83;100.00;101588.53;5003519;28;20054;-79
2021/11/11 11:32:18;;;;;;;0.30;0.30;;;;;;;8.79;100.00;101589.28;5002675;28;20050;-79
2021/11/11 11:34:49;;;;;;;0.30;0.30;;;;;;;8.78;100.00;101579.47;5001807;28;20062;-80
2021/11/11 11:37:20;;;;;;;0.20;0.20;;;;;;;8.87;100.00;101571.75;4997440;28;20489;-80
2021/11/11 11:39:57;;;;;;;0.20;0.20;;;;;;;9.02;100.00;101580.16;4995561;28;20537;-81
2021/11/11 11:42:35;;;;;;;0.30;0.30;;;;;;;8.94;100.00;101580.56;4981313;28;20050;-80
2021/11/11 11:45:09;;;;;;;;;;;;;;;8.89;100.00;101583.19;4978195;28;20065;-80
2021/11/11 11:47:40;;;;;;;0.20;0.20;;;;;;;8.93;100.00;101578.91;4979027;28;19929;-80
2021/11/11 11:50:12;;;;;;;0.30;0.30;;;;;;;8.97;100.00;101574.63;4975026;28;21090;-79
2021/11/11 11:52:48;;;;;;;0.30;0.30;;;;;;;8.88;100.00;101585.09;4973389;28;20045;-80
2021/11/11 11:55:23;;;;;;;0.20;0.20;;;;;;;8.77;100.00;101577.81;4977811;28;20073;-81
2021/11/11 11:58:00;;;;;;;0.20;0.20;;;;;;;8.78;100.00;101582.19;4981000;28;20057;-80
2021/11/11 12:03:38;;;;;;;0.22;0.22;;;;;;;8.73;100.00;101588.34;4992859;28;20049;-79
2021/11/11 12:09:19;;;;;;;0.20;0.20;;;;;;;8.75;100.00;101585.41;4982378;28;20450;-79
2021/11/11 12:14:43;;;;;;;0.30;0.30;;;;;;;8.66;100.00;101582.28;4943911;28;20089;-79
2021/11/11 12:38:40;;;;;;;0.30;0.30;;;;;;;8.75;100.00;101571.84;4979256;28;20045;-80
2021/11/11 12:41:17;;;;;;;0.30;0.30;;;;;;;8.81;100.00;101568.97;4971584;28;20671;-78
2021/11/11 12:44:05;;;;;;;0.30;0.30;;;;;;;8.87;100.00;101578.00;4975449;28;20050;-80
2021/11/11 12:46:43;;;;;;;0.22;0.22;;;;;;;8.77;100.00;101572.38;5012224;28;20100;-80